createdAt,value
2022-12-08T00:02:20.295Z,33.30
2022-12-08T00:05:06.887Z,40.00
2022-12-08T00:07:52.258Z,45.30
2022-12-08T00:10:47.315Z,42.40
2022-12-08T00:13:05.409Z,46.40
2022-12-08T00:16:00.643Z,38.10
2022-12-08T00:18:27.188Z,39.40
2022-12-08T00:20:55.552Z,32.60
2022-12-08T00:23:22.128Z,32.20
2022-12-08T00:25:48.709Z,29.60
2022-12-08T00:28:16.433Z,37.50
2022-12-08T00:30:43.141Z,32.50
2022-12-08T00:33:13.913Z,34.80
2022-12-08T00:35:44.258Z,27.20
2022-12-08T00:38:56.339Z,30.30
2022-12-08T00:42:02.680Z,32.00
2022-12-08T00:44:48.185Z,29.60
2022-12-08T00:47:22.224Z,22.70
2022-12-08T00:50:21.973Z,32.30
2022-12-08T00:56:08.217Z,33.00
2022-12-08T00:58:46.242Z,27.20
2022-12-08T01:02:03.941Z,27.30
2022-12-08T01:04:32.190Z,30.80
2022-12-08T01:07:02.530Z,22.00
2022-12-08T01:09:33.160Z,23.30
2022-12-08T01:15:02.480Z,27.70
2022-12-08T01:17:50.616Z,32.90
2022-12-08T01:21:06.646Z,27.20
2022-12-08T01:23:55.340Z,30.10
2022-12-08T01:26:24.593Z,31.10
2022-12-08T07:04:24.777Z,27.60
2022-12-08T07:06:51.435Z,31.30
2022-12-08T07:09:18.116Z,38.80
2022-12-08T07:11:44.646Z,33.80
2022-12-08T07:14:17.427Z,30.10
2022-12-08T07:16:46.811Z,35.20
2022-12-08T07:19:17.367Z,41.50
2022-12-08T07:21:49.806Z,39.80
2022-12-08T07:24:22.590Z,40.20
2022-12-08T07:26:52.812Z,40.20
2022-12-08T07:29:26.226Z,40.70
2022-12-08T07:31:57.821Z,34.40
2022-12-08T07:34:41.306Z,46.20
2022-12-08T07:37:11.528Z,39.50
2022-12-08T07:39:44.147Z,35.70
2022-12-08T07:42:14.437Z,38.90
2022-12-08T07:44:46.969Z,38.00
2022-12-08T07:47:58.424Z,41.40
2022-12-08T07:50:29.296Z,38.60
2022-12-08T07:52:55.991Z,42.90
2022-12-08T07:55:22.580Z,47.90
2022-12-08T07:57:50.039Z,39.50
2022-12-08T08:00:17.825Z,42.00
2022-12-08T08:02:44.824Z,41.00
2022-12-08T08:05:14.399Z,34.90
2022-12-08T08:07:42.908Z,53.30
2022-12-08T08:10:10.731Z,68.30
2022-12-08T08:12:38.210Z,72.00
2022-12-08T08:15:10.202Z,86.40
2022-12-08T08:17:37.546Z,94.10
2022-12-08T08:22:36.214Z,129.60
2022-12-08T08:25:03.308Z,140.70
2022-12-08T08:27:30.229Z,143.60
2022-12-08T08:29:57.008Z,146.00
2022-12-08T08:32:26.344Z,137.70
2022-12-08T08:34:55.262Z,127.90
2022-12-08T08:37:22.136Z,152.50
2022-12-08T08:39:48.787Z,157.60
2022-12-08T08:42:15.533Z,137.50
2022-12-08T08:44:42.356Z,132.80
